sensor_id;sensor_type;location;lat;lon;timestamp;P1;P2;P0
32503;PMS5003;18953;45.930;13.640;2024-02-15T00:04:55;39;36;
32503;PMS5003;18953;45.930;13.640;2024-02-15T00:10:11;28;25;
32503;PMS5003;18953;45.930;13.640;2024-02-15T00:15:28;24;20;
32503;PMS5003;18953;45.930;13.640;2024-02-15T00:20:44;24;20;
32503;PMS5003;18953;45.930;13.640;2024-02-15T00:26:00;26;23;
32503;PMS5003;18953;45.930;13.640;2024-02-15T00:31:16;24;21;
32503;PMS5003;18953;45.930;13.640;2024-02-15T00:36:33;26;24;
32503;PMS5003;18953;45.930;13.640;2024-02-15T00:41:49;30;26;
32503;PMS5003;18953;45.930;13.640;2024-02-15T00:47:06;32;26;
32503;PMS5003;18953;45.930;13.640;2024-02-15T00:52:22;32;30;
32503;PMS5003;18953;45.930;13.640;2024-02-15T00:57:39;37;34;
32503;PMS5003;18953;45.930;13.640;2024-02-15T01:02:55;34;31;
32503;PMS5003;18953;45.930;13.640;2024-02-15T01:08:12;37;33;
32503;PMS5003;18953;45.930;13.640;2024-02-15T01:13:28;41;38;
32503;PMS5003;18953;45.930;13.640;2024-02-15T01:18:44;28;24;
32503;PMS5003;18953;45.930;13.640;2024-02-15T01:24:01;27;23;
32503;PMS5003;18953;45.930;13.640;2024-02-15T01:29:17;23;22;
32503;PMS5003;18953;45.930;13.640;2024-02-15T01:34:33;22;20;
32503;PMS5003;18953;45.930;13.640;2024-02-15T01:39:50;27;24;
32503;PMS5003;18953;45.930;13.640;2024-02-15T01:45:07;28;26;
32503;PMS5003;18953;45.930;13.640;2024-02-15T01:50:22;29;26;
32503;PMS5003;18953;45.930;13.640;2024-02-15T01:55:39;32;31;
32503;PMS5003;18953;45.930;13.640;2024-02-15T02:00:56;30;27;
32503;PMS5003;18953;45.930;13.640;2024-02-15T02:06:12;19;18;
32503;PMS5003;18953;45.930;13.640;2024-02-15T02:11:28;22;20;
32503;PMS5003;18953;45.930;13.640;2024-02-15T02:16:45;25;18;
32503;PMS5003;18953;45.930;13.640;2024-02-15T02:22:01;25;23;
32503;PMS5003;18953;45.930;13.640;2024-02-15T02:27:18;28;24;
32503;PMS5003;18953;45.930;13.640;2024-02-15T02:32:34;27;26;
32503;PMS5003;18953;45.930;13.640;2024-02-15T02:37:50;27;26;
32503;PMS5003;18953;45.930;13.640;2024-02-15T02:43:07;30;26;
32503;PMS5003;18953;45.930;13.640;2024-02-15T02:48:23;32;28;
32503;PMS5003;18953;45.930;13.640;2024-02-15T02:53:39;27;25;
32503;PMS5003;18953;45.930;13.640;2024-02-15T02:58:56;24;22;
32503;PMS5003;18953;45.930;13.640;2024-02-15T03:04:12;22;19;
32503;PMS5003;18953;45.930;13.640;2024-02-15T03:09:28;23;20;
32503;PMS5003;18953;45.930;13.640;2024-02-15T03:14:45;24;22;
32503;PMS5003;18953;45.930;13.640;2024-02-15T03:20:01;26;22;
32503;PMS5003;18953;45.930;13.640;2024-02-15T03:25:17;26;25;
32503;PMS5003;18953;45.930;13.640;2024-02-15T03:30:34;29;25;
32503;PMS5003;18953;45.930;13.640;2024-02-15T03:35:50;24;22;
32503;PMS5003;18953;45.930;13.640;2024-02-15T03:41:06;27;25;
32503;PMS5003;18953;45.930;13.640;2024-02-15T03:46:23;26;24;
32503;PMS5003;18953;45.930;13.640;2024-02-15T03:51:39;26;24;
32503;PMS5003;18953;45.930;13.640;2024-02-15T03:56:55;28;25;
32503;PMS5003;18953;45.930;13.640;2024-02-15T04:02:12;22;22;
32503;PMS5003;18953;45.930;13.640;2024-02-15T04:07:28;28;25;
32503;PMS5003;18953;45.930;13.640;2024-02-15T04:12:44;24;23;
32503;PMS5003;18953;45.930;13.640;2024-02-15T04:18:01;28;23;
32503;PMS5003;18953;45.930;13.640;2024-02-15T04:23:17;23;19;
32503;PMS5003;18953;45.930;13.640;2024-02-15T04:28:33;25;24;
32503;PMS5003;18953;45.930;13.640;2024-02-15T04:33:50;24;21;
32503;PMS5003;18953;45.930;13.640;2024-02-15T04:39:06;21;18;
32503;PMS5003;18953;45.930;13.640;2024-02-15T04:44:22;17;17;
32503;PMS5003;18953;45.930;13.640;2024-02-15T04:49:39;23;22;
32503;PMS5003;18953;45.930;13.640;2024-02-15T04:54:55;27;23;
32503;PMS5003;18953;45.930;13.640;2024-02-15T05:00:12;27;25;
32503;PMS5003;18953;45.930;13.640;2024-02-15T05:05:28;26;23;
32503;PMS5003;18953;45.930;13.640;2024-02-15T05:10:44;38;34;
32503;PMS5003;18953;45.930;13.640;2024-02-15T05:16:00;26;23;
32503;PMS5003;18953;45.930;13.640;2024-02-15T05:21:17;40;35;
32503;PMS5003;18953;45.930;13.640;2024-02-15T05:26:33;41;36;
32503;PMS5003;18953;45.930;13.640;2024-02-15T05:31:50;50;41;
32503;PMS5003;18953;45.930;13.640;2024-02-15T05:37:06;32;29;
32503;PMS5003;18953;45.930;13.640;2024-02-15T05:42:23;46;40;
32503;PMS5003;18953;45.930;13.640;2024-02-15T05:47:39;42;35;
32503;PMS5003;18953;45.930;13.640;2024-02-15T05:52:56;39;35;
32503;PMS5003;18953;45.930;13.640;2024-02-15T05:58:12;37;33;
32503;PMS5003;18953;45.930;13.640;2024-02-15T06:03:29;37;35;
32503;PMS5003;18953;45.930;13.640;2024-02-15T06:08:46;33;29;
32503;PMS5003;18953;45.930;13.640;2024-02-15T06:14:02;34;30;
32503;PMS5003;18953;45.930;13.640;2024-02-15T06:19:18;29;28;
32503;PMS5003;18953;45.930;13.640;2024-02-15T06:24:35;43;37;
32503;PMS5003;18953;45.930;13.640;2024-02-15T06:29:51;35;28;
32503;PMS5003;18953;45.930;13.640;2024-02-15T06:35:07;67;53;
32503;PMS5003;18953;45.930;13.640;2024-02-15T06:40:24;50;42;
32503;PMS5003;18953;45.930;13.640;2024-02-15T06:45:40;36;34;
32503;PMS5003;18953;45.930;13.640;2024-02-15T06:50:57;80;63;
32503;PMS5003;18953;45.930;13.640;2024-02-15T06:56:13;47;43;
32503;PMS5003;18953;45.930;13.640;2024-02-15T07:01:30;46;40;
32503;PMS5003;18953;45.930;13.640;2024-02-15T07:06:46;46;42;
32503;PMS5003;18953;45.930;13.640;2024-02-15T07:12:03;51;44;
32503;PMS5003;18953;45.930;13.640;2024-02-15T07:17:19;43;35;
32503;PMS5003;18953;45.930;13.640;2024-02-15T07:22:36;31;29;
32503;PMS5003;18953;45.930;13.640;2024-02-15T07:27:53;25;24;
32503;PMS5003;18953;45.930;13.640;2024-02-15T07:33:09;38;32;
32503;PMS5003;18953;45.930;13.640;2024-02-15T07:38:25;38;36;
32503;PMS5003;18953;45.930;13.640;2024-02-15T07:43:42;30;29;
32503;PMS5003;18953;45.930;13.640;2024-02-15T07:48:58;35;31;
32503;PMS5003;18953;45.930;13.640;2024-02-15T07:54:14;27;24;
32503;PMS5003;18953;45.930;13.640;2024-02-15T07:59:31;39;35;
32503;PMS5003;18953;45.930;13.640;2024-02-15T08:04:48;37;32;
32503;PMS5003;18953;45.930;13.640;2024-02-15T08:10:05;27;26;
32503;PMS5003;18953;45.930;13.640;2024-02-15T08:15:20;30;26;
32503;PMS5003;18953;45.930;13.640;2024-02-15T08:20:37;26;23;
32503;PMS5003;18953;45.930;13.640;2024-02-15T08:25:53;25;23;
32503;PMS5003;18953;45.930;13.640;2024-02-15T08:31:09;23;22;
32503;PMS5003;18953;45.930;13.640;2024-02-15T08:36:25;27;24;
32503;PMS5003;18953;45.930;13.640;2024-02-15T08:41:42;20;20;
32503;PMS5003;18953;45.930;13.640;2024-02-15T08:46:58;21;20;
32503;PMS5003;18953;45.930;13.640;2024-02-15T08:52:14;20;20;
32503;PMS5003;18953;45.930;13.640;2024-02-15T08:57:30;21;19;
32503;PMS5003;18953;45.930;13.640;2024-02-15T09:02:47;19;18;
32503;PMS5003;18953;45.930;13.640;2024-02-15T09:08:04;24;21;
32503;PMS5003;18953;45.930;13.640;2024-02-15T09:13:19;18;17;
32503;PMS5003;18953;45.930;13.640;2024-02-15T09:18:36;17;15;
32503;PMS5003;18953;45.930;13.640;2024-02-15T09:23:52;16;16;
32503;PMS5003;18953;45.930;13.640;2024-02-15T09:29:08;17;16;
32503;PMS5003;18953;45.930;13.640;2024-02-15T09:34:25;20;19;
32503;PMS5003;18953;45.930;13.640;2024-02-15T09:39:41;16;15;
32503;PMS5003;18953;45.930;13.640;2024-02-15T09:44:57;25;21;
32503;PMS5003;18953;45.930;13.640;2024-02-15T09:50:14;15;14;
32503;PMS5003;18953;45.930;13.640;2024-02-15T09:55:30;11;10;
32503;PMS5003;18953;45.930;13.640;2024-02-15T10:00:46;12;11;
32503;PMS5003;18953;45.930;13.640;2024-02-15T10:06:03;18;16;
32503;PMS5003;18953;45.930;13.640;2024-02-15T10:11:19;14;12;
32503;PMS5003;18953;45.930;13.640;2024-02-15T10:16:35;16;14;
32503;PMS5003;18953;45.930;13.640;2024-02-15T10:21:52;14;12;
32503;PMS5003;18953;45.930;13.640;2024-02-15T10:27:08;10;10;
32503;PMS5003;18953;45.930;13.640;2024-02-15T10:32:24;14;14;
32503;PMS5003;18953;45.930;13.640;2024-02-15T10:37:40;11;10;
32503;PMS5003;18953;45.930;13.640;2024-02-15T10:42:57;13;11;
32503;PMS5003;18953;45.930;13.640;2024-02-15T10:48:13;12;11;
32503;PMS5003;18953;45.930;13.640;2024-02-15T10:53:30;17;14;
32503;PMS5003;18953;45.930;13.640;2024-02-15T10:58:46;17;17;
32503;PMS5003;18953;45.930;13.640;2024-02-15T11:04:03;27;24;
32503;PMS5003;18953;45.930;13.640;2024-02-15T11:09:19;16;14;
32503;PMS5003;18953;45.930;13.640;2024-02-15T11:14:35;16;16;
32503;PMS5003;18953;45.930;13.640;2024-02-15T11:19:51;17;15;
32503;PMS5003;18953;45.930;13.640;2024-02-15T11:25:07;13;13;
32503;PMS5003;18953;45.930;13.640;2024-02-15T11:30:31;15;13;
32503;PMS5003;18953;45.930;13.640;2024-02-15T11:35:43;17;15;
32503;PMS5003;18953;45.930;13.640;2024-02-15T11:41:00;12;11;
32503;PMS5003;18953;45.930;13.640;2024-02-15T11:46:13;12;12;
32503;PMS5003;18953;45.930;13.640;2024-02-15T11:51:30;11;10;
32503;PMS5003;18953;45.930;13.640;2024-02-15T11:56:49;12;11;
32503;PMS5003;18953;45.930;13.640;2024-02-15T12:02:01;17;15;
32503;PMS5003;18953;45.930;13.640;2024-02-15T12:07:17;17;16;
32503;PMS5003;18953;45.930;13.640;2024-02-15T12:12:34;16;16;
32503;PMS5003;18953;45.930;13.640;2024-02-15T12:17:50;17;17;
32503;PMS5003;18953;45.930;13.640;2024-02-15T12:23:06;20;19;
32503;PMS5003;18953;45.930;13.640;2024-02-15T12:28:23;20;19;
32503;PMS5003;18953;45.930;13.640;2024-02-15T12:33:39;19;19;
32503;PMS5003;18953;45.930;13.640;2024-02-15T12:38:59;18;18;
32503;PMS5003;18953;45.930;13.640;2024-02-15T12:44:12;19;17;
32503;PMS5003;18953;45.930;13.640;2024-02-15T12:49:29;20;19;
32503;PMS5003;18953;45.930;13.640;2024-02-15T12:54:44;20;17;
32503;PMS5003;18953;45.930;13.640;2024-02-15T13:00:00;18;18;
32503;PMS5003;18953;45.930;13.640;2024-02-15T13:05:17;20;19;
32503;PMS5003;18953;45.930;13.640;2024-02-15T13:10:33;18;18;
32503;PMS5003;18953;45.930;13.640;2024-02-15T13:15:49;16;16;
32503;PMS5003;18953;45.930;13.640;2024-02-15T13:21:06;18;16;
32503;PMS5003;18953;45.930;13.640;2024-02-15T13:26:22;18;16;
32503;PMS5003;18953;45.930;13.640;2024-02-15T13:31:38;18;16;
32503;PMS5003;18953;45.930;13.640;2024-02-15T13:36:54;21;21;
32503;PMS5003;18953;45.930;13.640;2024-02-15T13:42:11;14;13;
32503;PMS5003;18953;45.930;13.640;2024-02-15T13:47:27;12;12;
32503;PMS5003;18953;45.930;13.640;2024-02-15T13:52:43;15;14;
32503;PMS5003;18953;45.930;13.640;2024-02-15T13:57:59;15;12;
32503;PMS5003;18953;45.930;13.640;2024-02-15T14:03:16;16;15;
32503;PMS5003;18953;45.930;13.640;2024-02-15T14:08:32;22;18;
32503;PMS5003;18953;45.930;13.640;2024-02-15T14:13:48;20;16;
32503;PMS5003;18953;45.930;13.640;2024-02-15T14:19:05;20;19;
32503;PMS5003;18953;45.930;13.640;2024-02-15T14:24:21;17;17;
32503;PMS5003;18953;45.930;13.640;2024-02-15T14:29:38;17;15;
32503;PMS5003;18953;45.930;13.640;2024-02-15T14:34:54;16;15;
32503;PMS5003;18953;45.930;13.640;2024-02-15T14:40:11;17;15;
32503;PMS5003;18953;45.930;13.640;2024-02-15T14:45:26;20;19;
32503;PMS5003;18953;45.930;13.640;2024-02-15T14:50:42;21;21;
32503;PMS5003;18953;45.930;13.640;2024-02-15T14:55:58;29;25;
32503;PMS5003;18953;45.930;13.640;2024-02-15T15:01:15;24;21;
32503;PMS5003;18953;45.930;13.640;2024-02-15T15:06:31;29;24;
32503;PMS5003;18953;45.930;13.640;2024-02-15T15:11:47;31;29;
32503;PMS5003;18953;45.930;13.640;2024-02-15T15:17:04;29;26;
32503;PMS5003;18953;45.930;13.640;2024-02-15T15:22:20;32;29;
32503;PMS5003;18953;45.930;13.640;2024-02-15T15:27:36;38;33;
32503;PMS5003;18953;45.930;13.640;2024-02-15T15:32:53;37;33;
32503;PMS5003;18953;45.930;13.640;2024-02-15T15:38:09;32;28;
32503;PMS5003;18953;45.930;13.640;2024-02-15T15:43:25;44;36;
32503;PMS5003;18953;45.930;13.640;2024-02-15T15:48:42;37;30;
32503;PMS5003;18953;45.930;13.640;2024-02-15T15:53:58;42;33;
32503;PMS5003;18953;45.930;13.640;2024-02-15T15:59:15;39;34;
32503;PMS5003;18953;45.930;13.640;2024-02-15T16:04:32;42;36;
32503;PMS5003;18953;45.930;13.640;2024-02-15T16:09:48;44;35;
32503;PMS5003;18953;45.930;13.640;2024-02-15T16:15:06;46;38;
32503;PMS5003;18953;45.930;13.640;2024-02-15T16:20:22;41;34;
32503;PMS5003;18953;45.930;13.640;2024-02-15T16:25:38;44;37;
32503;PMS5003;18953;45.930;13.640;2024-02-15T16:30:54;52;43;
32503;PMS5003;18953;45.930;13.640;2024-02-15T16:36:11;50;41;
32503;PMS5003;18953;45.930;13.640;2024-02-15T16:41:27;61;48;
32503;PMS5003;18953;45.930;13.640;2024-02-15T16:46:44;48;40;
32503;PMS5003;18953;45.930;13.640;2024-02-15T16:52:01;54;43;
32503;PMS5003;18953;45.930;13.640;2024-02-15T16:57:17;54;43;
32503;PMS5003;18953;45.930;13.640;2024-02-15T17:02:34;53;43;
32503;PMS5003;18953;45.930;13.640;2024-02-15T17:07:50;60;48;
32503;PMS5003;18953;45.930;13.640;2024-02-15T17:13:06;63;50;
32503;PMS5003;18953;45.930;13.640;2024-02-15T17:18:22;55;46;
32503;PMS5003;18953;45.930;13.640;2024-02-15T17:23:39;64;50;
32503;PMS5003;18953;45.930;13.640;2024-02-15T17:28:56;74;57;
32503;PMS5003;18953;45.930;13.640;2024-02-15T17:34:12;69;54;
32503;PMS5003;18953;45.930;13.640;2024-02-15T17:39:29;68;54;
32503;PMS5003;18953;45.930;13.640;2024-02-15T17:44:46;74;56;
32503;PMS5003;18953;45.930;13.640;2024-02-15T17:50:04;74;58;
32503;PMS5003;18953;45.930;13.640;2024-02-15T17:55:19;74;58;
32503;PMS5003;18953;45.930;13.640;2024-02-15T18:00:36;72;55;
32503;PMS5003;18953;45.930;13.640;2024-02-15T18:05:53;68;54;
32503;PMS5003;18953;45.930;13.640;2024-02-15T18:11:09;69;53;
32503;PMS5003;18953;45.930;13.640;2024-02-15T18:16:26;78;60;
32503;PMS5003;18953;45.930;13.640;2024-02-15T18:21:43;71;57;
32503;PMS5003;18953;45.930;13.640;2024-02-15T18:26:59;70;56;
32503;PMS5003;18953;45.930;13.640;2024-02-15T18:32:15;66;53;
32503;PMS5003;18953;45.930;13.640;2024-02-15T18:37:32;71;55;
32503;PMS5003;18953;45.930;13.640;2024-02-15T18:42:48;68;53;
32503;PMS5003;18953;45.930;13.640;2024-02-15T18:48:05;66;52;
32503;PMS5003;18953;45.930;13.640;2024-02-15T18:53:21;65;53;
32503;PMS5003;18953;45.930;13.640;2024-02-15T18:58:37;85;65;
32503;PMS5003;18953;45.930;13.640;2024-02-15T19:03:54;85;67;
32503;PMS5003;18953;45.930;13.640;2024-02-15T19:09:10;86;68;
32503;PMS5003;18953;45.930;13.640;2024-02-15T19:14:27;84;64;
32503;PMS5003;18953;45.930;13.640;2024-02-15T19:19:44;85;68;
32503;PMS5003;18953;45.930;13.640;2024-02-15T19:25:00;82;63;
32503;PMS5003;18953;45.930;13.640;2024-02-15T19:30:17;79;61;
32503;PMS5003;18953;45.930;13.640;2024-02-15T19:35:34;73;56;
32503;PMS5003;18953;45.930;13.640;2024-02-15T19:40:51;76;58;
32503;PMS5003;18953;45.930;13.640;2024-02-15T19:46:08;77;61;
32503;PMS5003;18953;45.930;13.640;2024-02-15T19:51:24;73;58;
32503;PMS5003;18953;45.930;13.640;2024-02-15T19:56:40;77;60;
32503;PMS5003;18953;45.930;13.640;2024-02-15T20:01:57;82;64;
32503;PMS5003;18953;45.930;13.640;2024-02-15T20:07:13;80;63;
32503;PMS5003;18953;45.930;13.640;2024-02-15T20:12:30;84;66;
32503;PMS5003;18953;45.930;13.640;2024-02-15T20:17:47;84;63;
32503;PMS5003;18953;45.930;13.640;2024-02-15T20:23:04;87;68;
32503;PMS5003;18953;45.930;13.640;2024-02-15T20:28:20;81;61;
32503;PMS5003;18953;45.930;13.640;2024-02-15T20:33:37;80;62;
32503;PMS5003;18953;45.930;13.640;2024-02-15T20:38:54;85;64;
32503;PMS5003;18953;45.930;13.640;2024-02-15T20:44:11;85;68;
32503;PMS5003;18953;45.930;13.640;2024-02-15T20:49:28;79;62;
32503;PMS5003;18953;45.930;13.640;2024-02-15T20:54:44;82;64;
32503;PMS5003;18953;45.930;13.640;2024-02-15T21:00:01;92;73;
32503;PMS5003;18953;45.930;13.640;2024-02-15T21:05:17;88;69;
32503;PMS5003;18953;45.930;13.640;2024-02-15T21:10:34;82;65;
32503;PMS5003;18953;45.930;13.640;2024-02-15T21:15:51;83;63;
32503;PMS5003;18953;45.930;13.640;2024-02-15T21:21:08;75;59;
32503;PMS5003;18953;45.930;13.640;2024-02-15T21:26:24;70;56;
32503;PMS5003;18953;45.930;13.640;2024-02-15T21:31:40;70;54;
32503;PMS5003;18953;45.930;13.640;2024-02-15T21:36:56;74;59;
32503;PMS5003;18953;45.930;13.640;2024-02-15T21:42:13;82;63;
32503;PMS5003;18953;45.930;13.640;2024-02-15T21:47:30;78;60;
32503;PMS5003;18953;45.930;13.640;2024-02-15T21:52:47;84;65;
32503;PMS5003;18953;45.930;13.640;2024-02-15T21:58:04;94;74;
32503;PMS5003;18953;45.930;13.640;2024-02-15T22:03:20;89;69;
32503;PMS5003;18953;45.930;13.640;2024-02-15T22:08:36;78;61;
32503;PMS5003;18953;45.930;13.640;2024-02-15T22:13:53;79;58;
32503;PMS5003;18953;45.930;13.640;2024-02-15T22:19:10;81;62;
32503;PMS5003;18953;45.930;13.640;2024-02-15T22:24:27;85;68;
32503;PMS5003;18953;45.930;13.640;2024-02-15T22:29:43;80;63;
32503;PMS5003;18953;45.930;13.640;2024-02-15T22:35:00;75;57;
32503;PMS5003;18953;45.930;13.640;2024-02-15T22:40:17;74;58;
32503;PMS5003;18953;45.930;13.640;2024-02-15T22:45:33;78;59;
32503;PMS5003;18953;45.930;13.640;2024-02-15T22:50:50;71;56;
32503;PMS5003;18953;45.930;13.640;2024-02-15T22:56:07;70;55;
32503;PMS5003;18953;45.930;13.640;2024-02-15T23:01:23;69;54;
32503;PMS5003;18953;45.930;13.640;2024-02-15T23:06:40;74;56;
32503;PMS5003;18953;45.930;13.640;2024-02-15T23:11:56;69;54;
32503;PMS5003;18953;45.930;13.640;2024-02-15T23:17:13;68;54;
32503;PMS5003;18953;45.930;13.640;2024-02-15T23:22:31;74;57;
32503;PMS5003;18953;45.930;13.640;2024-02-15T23:27:47;73;57;
32503;PMS5003;18953;45.930;13.640;2024-02-15T23:33:04;70;56;
32503;PMS5003;18953;45.930;13.640;2024-02-15T23:38:20;63;51;
32503;PMS5003;18953;45.930;13.640;2024-02-15T23:43:37;72;55;
32503;PMS5003;18953;45.930;13.640;2024-02-15T23:48:54;68;52;
32503;PMS5003;18953;45.930;13.640;2024-02-15T23:54:11;66;50;
32503;PMS5003;18953;45.930;13.640;2024-02-15T23:59:28;63;49;
